Latest Observation

113 Stations

10 Minute Data
as of 9/1/26 4:02 PM PDT
Station Date Time Temp (°F) RH (%) Dew Pt (°F) Wind Spd (mph) Wind Dir (°) Wind Gust (mph) Wind Gst Dir (°) Latest Rain (In) Soil Moist (%) Soil Temp (°F) Daily Rain (In) Daily Min Temp (°F) Daily Max Temp (°F) Daily Max Wind (mph)
Hobart Mills 9/1/26 1600 62.7   11.7 29   2 30.0   8.4 5.8   3.6 SSW | 213 18.1   10.1 SW | 222 0.00 7.6   0.0 66.6   0.1 0.00 46.7   6.6 66.6   10.4 24.3   2.6
Prosser Dam 9/1/26 1600 64.6   10.0 25   4 28.1   11.9 10.6   0.1 SSW | 208 21.9   1.4 SW | 226 0.00 5.4   0.1 63.1   0.3 0.00 45.4   8.5 69.0   8.4 31.2   7.9
West Incline Village 9/1/26 1600 56.7   11.0 39   5 32.3   6.1 6.5   1.5 SSW | 211 17.5   3.1 SSW | 203 0.00 11.8   0.1 58.5   0.2 0.00 48.6   4.5 61.3   8.9 21.2   6.8
Incline Village (Fairview Blvd) 9/1/26 1600 57.3   13.3 42   10 34.5   4.9 4.4   0.6 SW | 235 15.6   5.8 SW | 222 0.00 7.7   0.1 71.8   0.0 0.00 51.0   3.2 64.0   8.8 17.8   7.0
Incline Village (Diamond Peak) 9/1/26 1600 54.8   12.6 46   12 34.4   3.7 4.1   2.0 NW | 310 9.7   1.9 NW | 312 0.00 2.5   0.0 60.8   0.0 0.00 49.6   4.2 60.4   7.5 13.2   5.3
Incline Village (Mill Creek) 5/30/36 1610 74.5 37 46.5 0.5 SW | 236 1.7 SSW | 213 0.00 0.0 0.0 0.00 74.4 74.5 1.7
Incline Village (Lakeshore Blvd) 9/1/26 1600 59.4   10.8 53   9 42.2   4.9 7.3   2.2 SW | 234 11.9   3.8 WSW | 247 0.00 20.5   2.0 63.5   0.7 0.00 46.6   0.2 63.8   8.2 15.6   7.3
Glenbrook 9/1/26 1600 61.7   8.1 44   2 39.5   8.4 9.6   3.5 WSW | 237 19.0   9.9 WSW | 250 0.00 43.0   0.1 59.4   0.1 0.00 51.6   2.4 64.8   9.0 21.5   12.3
Zephyr Cove 9/1/26 1600 62.3   9.9 31   3 31.5   11.4 1.3   0.0 SSE | 156 5.7   1.4 SSW | 204 0.00 2.9   0.0 70.4   1.6 0.00 51.6   0.4 68.5   4.9 12.7   2.1
Kingsbury Grade 9/1/26 1600 61.5   11.8 32   1 31.4   11.2 2.8   0.9 W | 261 10.6   4.7 SW | 228 0.00 2.4   0.1 68.5   0.3 0.00 47.8   0.8 66.5   7.9 15.4   3.8
South Daggett Pass (Ridge) 9/1/26 1600 56.7   9.9 37   0 30.8   9.2 2.6   2.0 WNW | 290 7.9   7.6 WNW | 294 0.00 2.2   0.0 64.2   0.2 0.00 48.1   5.5 63.0   5.8 20.7   2.4
Palomino Valley 9/1/26 1600 76.0   8.7 18   1 29.2   6.0 20.2   14.1 WSW | 238 31.3   17.9 WSW | 244 0.00 6.6   0.0 77.9   0.6 0.00 53.3   6.1 79.4   7.4 31.3   11.8
East Cold Springs 9/1/26 1600 70.0   10.5 20   1 27.2   9.9 13.1   4.1 WSW | 246 22.5   5.1 W | 259 0.00 1.6   0.0 71.7   0.4 0.00 56.0   0.1 72.2   10.6 28.0   6.6
Peavine 8/22/26 1700 81.6   1.5 27   0 44.0   1.5 22.7   10.4 SW | 225 48.4   26.2 SW | 220 0.00 - 53.4   0.0 0.00 69.4   2.1 87.6   2.1 48.4   26.2
West Verdi Peak 9/1/26 1700 64.9   11.2 21   3 23.8   12.6 6.9   3.0 S | 172 16.9   6.2 SSE | 162 0.00 6.6   0.0 70.0   0.1 0.00 51.9   0.5 68.6   9.6 26.4   11.8
West Verdi 9/1/26 1600 69.6   10.1 18   3 24.5   12.3 7.6   3.5 SW | 217 17.5   1.9 SSW | 198 0.00 6.3   0.0 81.0   0.4 0.00 57.7   7.5 73.4   9.4 28.9   6.2
South Verdi 9/1/26 1600 68.1   10.2 16   7 20.9   16.6 24.9   9.9 SW | 229 37.9   11.6 SW | 228 0.00 10.7   0.1 76.0   1.6 0.00 57.3   3.7 70.1   9.3 38.5   11.3
Northwest Reno 9/1/26 1600 70.4   10.0 18   2 25.4   11.3 35.9   23.1 WSW | 242 47.7   21.2 WSW | 247 0.00 25.1   0.1 79.1   0.4 0.00 59.1   0.3 73.3   10.1 47.7   17.5
North Lawton 8/28/26 1620 63.8   17.1 74   52 55.4   16.5 1.5   11.6 ESE | 121 5.1   19.0 SE | 124 0.00 - 78.2   0.0 0.05 59.2   7.5 71.9   13.3 20.4   4.6
West Reno (Mogul) 9/1/26 1600 70.2   9.7 17   4 23.8   12.9 9.7   1.7 WSW | 244 22.1   0.4 W | 274 0.00 19.6   0.1 79.1   0.2 0.00 57.2   2.7 73.8   8.1 31.0   9.1
Caughlin (Hunter Lake Trail) 9/1/26 1600 70.7   11.3 19   1 26.4   10.3 9.6   0.4 WSW | 257 15.6   5.0 WSW | 238 0.00 16.5   0.0 75.0   0.2 0.00 57.0   2.1 74.0   8.7 30.3   9.7
ArrowCreek 9/1/26 1600 71.1   9.6 17   3 24.3   11.6 15.1   1.6 SSW | 213 27.1   6.5 SSW | 199 0.00 - 32.0   0.0 0.00 55.4   0.2 74.6   7.8 30.6   5.7
Tracy 9/1/26 1600 77.7   9.1 16   1 27.6   5.1 16.6   4.3 WSW | 258 25.6   5.5 WSW | 249 0.00 16.1   0.0 80.2   0.6 0.00 61.4   3.8 80.1   8.6 25.7   5.6
Virginia Highlands 9/1/26 1600 64.8   11.4 29   6 31.4   4.0 10.5   2.2 WSW | 238 21.5   3.4 W | 259 0.00 8.0   0.0 74.8   0.3 0.00 55.9   3.6 70.4   8.4 24.0   5.2
Virginia City 9/1/26 1600 63.1   10.9 33   9 33.6   1.8 13.5   3.1 WNW | 293 24.8   8.2 NW | 306 0.00 4.8   0.0 74.4   0.3 0.00 55.4   4.8 70.3   6.0 27.1   6.0
Six Mile Canyon 9/1/26 1600 74.7   9.4 21   4 31.9   2.3 15.8   5.5 WNW | 294 22.8   4.8 WNW | 301 0.00 12.5   0.0 79.3   0.4 0.00 61.6   4.2 80.7   5.5 28.8   9.3
Mt Rose Highway 9/1/26 1600 58.5   12.7 33   6 29.2   5.9 8.2   1.9 SSW | 209 23.2   6.3 WSW | 238 0.00 7.4   0.0 62.3   0.1 0.00 52.1   3.9 64.0   9.5 28.0   10.9
Pleasant Valley 9/1/26 1600 70.9   10.6 24   3 32.3   5.4 16.0   6.2 WSW | 252 28.0   9.2 WSW | 258 0.00 2.4   0.0 79.5   0.5 0.00 51.3   0.6 75.2   8.4 30.6   7.8
New Washoe City 9/1/26 1600 67.8   11.8 30   8 35.0   1.7 16.1   5.2 WSW | 240 27.1   8.8 WSW | 249 0.00 3.5   0.0 74.1   0.3 0.00 58.8   6.8 73.4   8.5 30.7   10.3
Franktown Creek 9/1/26 1600 67.3   12.7 32   8 36.2   3.0 3.5   0.0 W | 274 15.9   3.2 NW | 310 0.00 7.0   0.0 72.6   0.4 0.00 56.3   6.6 73.5   7.5 27.2   13.4
Musgrove Creek 9/1/26 1600 64.0   11.7 37   11 37.3   1.7 3.7   1.1 S | 190 12.5   4.0 WSW | 237 0.00 10.2   0.0 60.9   0.2 0.00 55.2   2.5 70.8   6.9 20.9   7.8
East Carson 11/23/24 0110 28.6   28.4 - - 4.7   11.0 SW | 220 14.7   10.1 SW | 219 0.02 - 50.9   0.1 0.02 -25.9   79.1 42.9   14.6 16.0   10.7
Kings Canyon 9/1/26 1600 69.1   7.9 25   3 31.6   9.5 11.7   1.9 SW | 232 29.1   10.3 WSW | 239 0.00 4.2   0.0 70.7   0.5 0.00 61.1   10.0 73.5   6.9 31.7   9.2
Carson City (Voltaire Canyon) 9/1/26 1600 69.9   9.3 25   0 32.6   7.9 15.7   4.1 WSW | 247 26.6   6.0 WSW | 240 0.00 2.8   0.0 79.1   0.2 0.00 61.3   1.8 75.9   6.4 32.0   6.1
Jacks Valley 9/1/26 1600 69.3   8.8 26   1 33.0   8.9 12.2   2.1 W | 278 19.1   5.5 W | 281 0.00 4.7   0.0 82.6   1.1 0.00 57.9   3.9 74.8   6.0 27.2   2.6
Genoa 9/1/26 1600 72.0   8.8 24   1 33.6   8.9 1.6   2.4 NE | 44 5.8   6.1 SSE | 157 0.00 2.6   0.0 84.4   1.2 0.00 61.6   7.1 76.5   6.8 16.0   2.6
South Genoa (Walleys Hot Springs) 9/1/26 1600 73.1   8.6 23   2 32.9   9.0 7.0   0.6 W | 266 17.6   4.3 WNW | 297 0.00 4.9   0.1 74.4   0.4 0.00 56.5   10.7 77.7   5.8 30.9   9.0
SW Gardnerville (HWY 88) 9/1/26 1600 71.4   8.5 21   6 29.2   13.9 18.8   4.1 SSW | 195 28.7   6.6 S | 188 0.00 2.8   0.0 70.2   0.7 0.00 59.7   13.6 75.8   5.4 31.9   9.8
Sheridan 9/1/26 1600 71.8   10.7 17   7 24.4   17.2 12.1   1.4 S | 180 23.0   3.2 SSW | 204 0.00 1.1   0.0 74.9   0.1 0.00 58.2   7.5 76.2   7.6 31.7   5.5
Ruhenstroth 9/1/26 1600 72.4   10.8 18   2 26.8   6.5 13.6   7.7 SW | 217 27.7   13.8 SSW | 212 0.00 7.2   0.0 82.5   1.1 0.00 60.0   10.2 75.3   8.7 31.4   8.1
Double Spring 9/1/26 1600 69.2   8.6 20   2 26.6   9.9 12.6   3.5 W | 273 20.0   3.0 W | 272 0.00 25.6   0.1 78.2   2.2 0.00 50.9   5.2 71.4   7.2 23.7   2.4
North Topaz Lake 9/1/26 1600 73.1   7.4 17   4 26.3   10.7 10.2   0.5 SW | 217 18.3   2.0 SW | 232 0.00 8.1   0.0 90.6   2.3 0.00 61.0   2.1 75.6   6.3 25.6   5.4
Wild Oat Mountain 9/1/26 1600 70.8   8.8 17   5 23.3   13.2 21.0   13.2 SW | 233 31.9   17.4 SW | 231 0.00 6.0   0.1 79.2   2.0 0.00 58.2   0.9 72.9   8.8 33.0   6.3
Smith Valley 9/1/26 1600 78.4   6.9 14   5 25.2   13.0 9.3   1.4 SSW | 208 18.4   3.1 S | 181 0.00 2.8   0.1 78.4   0.9 0.00 59.8   4.4 81.0   5.2 23.7   1.0
Pine Grove Mountain 9/1/26 1600 67.6   2.5 15   7 17.8   11.9 10.8   2.6 SW | 231 20.6   5.1 SW | 224 0.00 6.9   0.3 69.9   0.2 0.00 50.6   4.8 68.8   2.2 26.0   5.7
Paradise Hill 9/1/26 1600 79.6   6.6 18   4 32.2   0.3 11.9   3.8 W | 272 19.1   5.3 W | 276 0.00 10.3   0.0 80.4   0.2 0.00 55.3   11.5 80.4   7.3 27.0   9.8
Winnemucca 9/1/26 1600 80.5   6.3 17   3 32.4   0.0 5.5   4.7 W | 275 12.7   5.5 WSW | 258 0.00 5.7   0.0 76.0   1.2 0.00 65.0   15.6 81.0   6.9 22.6   1.1
NE Elko 9/1/26 1600 80.9   1.8 11   7 22.2   12.8 12.0   5.0 S | 179 23.8   13.4 S | 179 0.00 5.7   0.0 73.4   0.1 0.00 46.2   7.3 81.7   2.9 35.6   19.0
North Elko 9/1/26 1600 79.2   2.2 11   7 20.3   13.7 16.0   3.2 SSE | 166 27.6   6.7 SSW | 199 0.00 24.8   0.0 73.6   0.1 0.00 57.5   6.5 80.9   2.2 31.7   10.8
South Elko 9/1/26 1600 77.7   0.1 12   8 21.9   12.6 11.7   0.6 S | 189 20.5   3.3 SSE | 166 0.00 13.8   0.0 72.3   0.3 0.00 55.7   1.1 78.2 35.2   13.3
Lamoille 9/1/26 1600 75.8   1.7 15   8 25.1   12.4 18.8   12.3 SSW | 204 29.8   19.9 SSW | 197 0.00 6.4   0.0 68.3   0.1 0.00 51.7   3.3 76.7   3.0 34.5   15.0
Reid Gardner Sub 9/1/26 1600 97.6   1.7 18   3 46.8   6.3 10.8   4.6 SSW | 200 19.2   5.5 SSW | 207 0.00 26.6   0.0 90.7   0.1 0.00 71.9   2.6 98.7   1.7 23.4   8.1
Corn Creek 9/1/26 1600 89.4   4.3 10   7 25.5   16.9 22.1   6.8 SE | 132 34.5   11.1 SE | 133 0.00 3.1   0.1 92.4   1.7 0.00 71.9   1.9 91.8   3.3 40.0   6.6
Lucky Strike 9/1/26 1600 77.8   3.6 9   9 15.2   19.7 16.7   6.1 S | 187 24.8   5.1 SSW | 204 0.00 3.2   0.1 87.2   0.5 0.00 64.8   4.2 79.6   2.7 33.8   4.1
Lower Angel Peak 9/1/26 1600 72.4   3.2 12   12 16.4   19.5 8.7   0.9 SSE | 152 16.9   2.6 ESE | 123 0.00 3.1   0.1 75.0   0.1 0.00 60.0   1.8 74.8   3.0 28.4   4.6
Angel Peak 9/1/26 1600 58.3   4.1 15   18 10.9   22.2 10.6   8.3 S | 179 24.0   5.3 S | 184 0.00 2.5   0.0 69.6   1.6 0.00 51.2   3.7 60.9   5.3 53.2   18.5
Upper Kyle Canyon 9/1/26 1600 63.4   4.6 16   14 16.4   18.7 13.4   7.9 ENE | 59 42.4   27.9 ESE | 112 0.00 7.7   0.1 74.7   0.7 0.00 55.8   4.5 67.8   1.9 42.4   9.7
Mt Charleston 9/1/26 1600 64.0   4.4 16   14 17.2   18.4 6.0   1.6 NNW | 344 16.4   2.7 NNE | 24 0.00 13.4   0.0 69.2   0.5 0.00 57.4   1.8 67.6   2.7 29.7   6.6
Mid Kyle Canyon 9/1/26 1600 71.5   4.7 14   10 19.1   17.6 11.2   0.2 SSW | 193 24.5   1.5 SSW | 199 0.00 5.8   0.0 75.2   0.0 0.00 59.6   0.9 73.6   3.8 33.0   4.6
Blue Diamond 9/1/26 1600 87.1   4.4 12   6 29.2   13.8 11.8   1.2 W | 260 24.5   4.3 WNW | 303 0.00 1.3   0.0 90.0   0.9 0.00 71.5   1.4 88.4   4.9 28.4   3.5
Artesian Sub 9/1/26 1600 98.2   2.7 11   6 33.6   14.2 7.5   1.6 S | 176 18.1   3.4 S | 180 0.00 11.7   0.1 93.8   0.4 0.00 78.4   2.7 99.7   3.2 22.5   1.7
North Henderson 9/1/26 1600 98.3   1.9 11   8 34.6   15.5 15.2   4.7 SW | 216 22.4   8.6 SW | 231 0.00 10.4   0.3 97.5   1.0 0.00 81.0   3.4 99.4   2.2 29.2   5.6
Sandy Valley 9/1/26 1600 90.4   3.3 15   4 36.6   9.4 12.7   1.9 SW | 214 21.4   4.6 SSW | 194 0.00 8.3   0.3 93.6   1.8 0.00 73.3   0.9 90.9   4.3 22.5   3.5
Searchlight 9/1/26 1600 88.8   1.2 22   3 45.4   4.3 19.9   0.0 S | 190 28.2   1.5 S | 184 0.00 6.1   0.1 90.1   1.7 0.00 68.0   2.9 89.8   2.4 30.6   3.7
Laughlin 9/1/26 1600 102.3   0.3 29   1 63.7   1.6 19.8   3.4 SE | 146 30.6   6.2 SE | 134 0.00 4.5   0.1 101.1   1.5 0.00 86.0   3.6 103.4   0.3 30.6   12.3
31Mission Hills 9/1/26 1600 95.0   1.4 11   14 33.1   19.6 9.6   10.4 SSW | 211 26.1   1.7 WSW | 242 0.00 7.5   0.1 96.3   1.5 0.00 76.8   4.1 95.9   1.0 43.8   5.3
32 Enterprise Sierra Cliffs 9/1/26 1600 89.4   4.9 10   5 26.2   13.4 15.7   0.8 SW | 225 24.5   3.2 SW | 220 0.00 1.5   0.1 95.9   2.2 0.00 76.3   1.7 90.3   4.5 26.3   2.0
29 Calico Basin 9/1/26 1600 85.0   5.5 10   6 21.8   16.1 19.8   4.1 SW | 216 32.2   4.9 SW | 225 0.00 2.6   0.1 86.4   2.0 0.00 72.1   3.3 86.4   5.8 39.4   9.9
28 Indian Springs 9/1/26 1600 91.1   1.8 6   8 16.2   20.9 15.9   1.1 SW | 214 31.6   1.5 SW | 224 0.00 4.7   0.1 88.9   1.4 0.00 69.4   0.7 91.8   3.0 36.8   4.2
30 Jean 9/1/26 1600 89.5   4.9 11   3 27.6   10.1 15.2   0.3 WSW | 238 25.5   8.1 WSW | 237 0.00 5.4   0.1 94.2   1.4 0.00 64.3   6.7 90.7   4.7 27.4   6.1
VC Highlands NW 9/1/26 1600 64.6   10.7 24   4 27.4   4.4 6.3   1.0 WSW | 240 14.3   2.4 WSW | 252 0.00 1.7   0.0 73.2   0.9 0.00 55.0   4.4 69.9   8.2 18.8   1.6
Glenbrook-Spooner Summit 9/1/26 1230 60.1   6.5 27   0 26.4   5.2 7.1   0.8 WSW | 257 17.8   4.2 SW | 228 0.00 7.8   0.0 66.6   0.3 0.00 50.2   2.5 61.4   6.9 19.4   4.5
Hobo Hot Springs 9/1/26 1600 73.5   7.3 20   4 29.6   10.4 7.0   3.0 WSW | 242 15.9   5.0 SW | 215 0.00 1.1   0.0 73.5   0.0 0.00 56.6   12.1 77.7   6.1 25.0   0.5
Jack Valley Ranch 2 9/1/26 1600 69.1   8.3 24   2 30.7   9.4 8.6   1.2 W | 273 20.2   2.7 SW | 236 0.00 2.2   0.0 76.1   0.4 0.00 60.4   5.9 75.4   5.0 35.0   12.0
Genoa North 2 9/1/26 1600 70.8   8.7 22   2 30.0   9.3 6.2   2.2 WSW | 241 15.0   7.0 W | 271 0.00 0.9   0.1 78.7   0.9 0.00 60.1   6.2 77.0   5.6 27.2   4.6
Mottsville 2 9/1/26 1600 72.5   8.3 17   5 25.1   13.3 5.9   0.4 S | 181 11.6   2.6 SSE | 156 0.00 1.3   0.1 73.4   0.5 0.00 57.0   9.5 76.9   5.4 22.1   2.5
Kingsbury Village 3 9/1/26 1600 55.7   10.7 34   1 27.7   9.9 2.5   2.1 WNW | 286 9.4   3.6 NW | 306 0.00 3.2   0.1 64.4   0.0 0.00 45.3   4.0 63.4   6.0 18.3   2.6
Kingsbury-Benjamin Dr 2 9/1/26 1600 58.7   8.8 32   2 28.6   9.2 1.8   1.3 W | 274 6.7   3.2 WSW | 238 0.00 3.2   0.2 72.0   0.7 0.00 48.9   4.0 64.7   4.9 18.6   1.5
Smith Valley-Wellington 9/1/26 1600 77.7   7.8 12   3 20.6   12.3 11.7   4.2 WSW | 244 28.1   12.6 WSW | 245 0.00 3.6   0.1 81.1   1.0 0.00 61.5   6.0 80.6   5.6 29.1   13.5
Sheridan South 2 9/1/26 1600 70.9   11.7 19   2 26.5   6.6 9.9   4.8 S | 169 21.9   9.6 SSW | 202 0.00 0.5   0.0 75.6   0.3 0.00 56.3   9.3 75.2   7.9 26.4   6.8
Silver Springs 9/1/26 1600 80.2   6.7 10   3 18.3   10.9 20.8   12.1 WSW | 248 31.9   8.9 WSW | 241 0.00 5.1   0.1 82.8   1.4 0.00 66.4   12.2 82.5   5.1 34.0   11.0
Fernley 9/1/26 1600 79.5   6.9 13   1 24.8   3.3 19.0   10.9 NW | 308 32.2   15.4 NW | 306 0.00 3.2   0.0 85.9   0.2 0.00 61.2   6.3 82.4   5.5 32.2   15.4
Spanish Springs 9/1/26 1600 75.1   9.9 16   1 26.3   6.9 10.7   5.1 WSW | 248 21.1   9.7 W | 266 0.00 10.6   0.0 81.3   0.8 0.00 53.3   5.5 78.8   7.9 24.7   8.0
Suttcliffe South 2 9/1/26 1600 78.2   4.1 14   2 25.3   6.0 13.5   2.4 WSW | 254 26.3   6.6 W | 262 0.00 4.5   0.0 83.6   0.6 0.00 59.0   7.5 81.1   3.3 28.7   8.9
Lemmon Valley North 9/1/26 1600 70.1   11.1 17   0 23.4   9.2 15.7   3.9 SSW | 197 25.6   5.2 SSW | 201 0.00 2.1   0.1 73.1   0.9 0.00 60.8   21.8 74.1   7.6 28.3   7.2
Lemmon Valley NW 3 9/1/26 1600 70.9   11.7 16   0 23.2   9.2 15.2   6.5 WSW | 253 24.8   3.6 SW | 233 0.00 1.4   0.0 83.3   0.4 0.00 60.7   14.7 75.0   9.2 28.3   7.1
VC Highlands North 9/1/26 1600 65.8   11.3 23   5 27.4   4.0 10.5   3.1 WSW | 237 20.1   6.8 W | 263 0.00 5.4   0.3 90.1   5.4 0.00 56.5   10.4 70.8   8.0 23.4   4.1
Upper Voltaire Cyn 9/1/26 1600 65.9   9.6 25   0 29.0   8.6 12.7   2.5 SW | 231 22.1   0.4 SW | 225 0.00 1.2   0.0 74.6   0.1 0.00 57.1   1.4 71.2   7.3 32.8   6.7
Yerington NW 9/1/26 1600 76.8   6.3 17   2 29.2   7.8 15.1   7.0 W | 274 23.6   11.9 W | 273 0.00 7.3   0.0 78.9   0.6 0.00 57.4   11.0 79.4   6.0 29.4   9.6
Spanish Springs SW 9/1/26 1600 73.6   10.1 16   1 24.9   7.2 14.1   5.5 WSW | 245 24.2   8.7 WSW | 246 0.00 1.6   0.0 82.8   0.1 0.00 55.6   3.4 77.6   7.6 25.1   5.7
Cosgrave 2 8/27/26 0750 62.9   4.1 34   3 33.8   1.4 2.6   0.5 WSW | 246 4.1   1.0 W | 267 0.00 3.8   0.1 77.4   2.9 0.00 62.7   3.3 77.4   3.5 11.2   3.9
Winnemucca-Grass Valley 2 9/1/26 1600 78.4   5.6 19   2 32.2   2.0 9.2   1.6 SSW | 208 16.6   4.6 SW | 231 0.00 8.1   0.0 76.3   1.1 0.00 51.8   12.1 80.5   5.3 20.9   6.8
Winnemucca-Dutch Flat Rd 9/1/26 1600 77.9   8.2 16   4 28.2   0.2 5.6   2.4 WNW | 282 15.6   3.4 W | 270 0.00 6.3   0.1 76.7   0.9 0.00 60.0   8.6 80.2   6.7 21.9   8.1
Paradise Valley 2 9/1/26 1600 78.3   7.1 15   4 27.2   1.2 7.1   4.3 SSW | 208 14.2   8.6 SW | 232 0.00 12.8   0.1 76.4   0.8 0.00 52.9   12.6 81.0   5.3 20.4   1.0
Golconda 2 9/1/26 1600 81.4   5.8 14   2 27.6   0.5 11.1   1.4 SSW | 204 19.5   4.7 S | 179 0.00 2.2   0.0 87.8   0.6 0.00 60.4   11.7 83.1   4.9 22.4   3.7
Battle Mountain - South 9/1/26 1600 82.1   4.2 14   1 27.6   0.8 13.2   9.6 W | 265 22.1   12.7 W | 270 0.00 9.3   0.0 76.4   0.6 0.00 57.9   18.4 83.7   5.3 26.8   10.8
Geiger Summit 9/1/26 1600 61.1   12.2 100   0 61.1   12.2 9.8   3.5 SW | 223 18.9   1.6 SSW | 207 0.00 6.3   0.2 70.1   0.6 0.00 53.0   4.0 67.4   7.5 26.6   4.7
Combs Canyon 3 9/1/26 1600 70.0   9.8 26   4 33.4   4.4 11.7   0.1 W | 265 27.6   6.5 W | 262 0.00 1.1   0.1 79.8   0.2 0.00 59.1   3.9 75.9   6.2 30.7   9.2
Clear Creek 9/1/26 1600 65.8   9.6 25   1 29.2   9.0 15.3   5.0 SW | 236 30.1   10.1 WSW | 249 0.00 3.5   0.1 71.9   0.6 0.00 59.5   7.5 71.2   6.2 33.5   9.4
Eastlake 2 9/1/26 1600 67.3   10.8 31   9 35.7   0.3 15.6   1.2 W | 262 25.0   0.2 W | 262 0.00 3.4   0.0 73.4   0.4 0.00 57.9   10.1 74.4   7.0 30.1   5.3
Lovelock-Colado 2 9/1/26 1600 80.4   6.6 14   1 27.3   3.2 8.5   0.8 S | 172 14.3   2.6 S | 188 0.00 - 79.9   0.7 0.00 54.3   2.2 82.4   5.3 21.9   3.0
Spanish Springs NW 9/1/26 1600 75.2   8.4 17   0 27.0   6.6 10.6   4.5 WSW | 239 20.7   7.7 WSW | 240 0.00 12.9   0.1 74.9   0.3 0.00 55.9   6.9 78.0   7.5 24.6   7.6
Battle Mountain NW 9/1/26 1600 82.5   4.3 13   0 26.1   3.0 9.1   4.7 WSW | 237 19.1   11.9 WSW | 246 0.00 9.0   0.0 79.7   1.4 0.00 61.0   17.4 83.5   4.9 23.5   6.3
Austin 2 9/1/26 1500 73.1   5.6 13   31 18.7   25.6 15.3   12.2 S | 170 24.7   16.2 S | 171 0.00 2.7   0.1 82.4   6.9 0.00 49.1   11.8 74.0   2.9 33.4   6.0
Elko-Osino 9/1/26 1600 80.8   2.6 10   5 19.1   12.3 13.3   8.0 S | 187 24.3   13.8 SSW | 204 0.00 1.5   0.0 78.3   0.9 0.00 47.3   6.7 82.5   4.2 33.5   19.1
Elko-Bill Fishpond 2 9/1/26 1600 78.7   0.4 14   5 25.6   8.4 12.3   7.6 WSW | 254 21.5   12.8 SW | 225 0.00 3.5   0.0 69.8   0.0 0.00 46.4   4.6 79.8   0.1 28.3   2.7
Spring Creek SE 2 9/1/26 1600 78.9   3.2 10   6 16.9   14.5 19.1   6.2 SSW | 205 29.2   10.7 S | 184 0.00 0.3   0.0 69.8   0.0 0.00 48.8   6.0 80.0   4.1 36.0   13.8
Spring Creek NW 9/1/26 1600 79.1   3.5 10   6 18.5   13.9 13.3   5.2 SSW | 209 22.7   3.2 SSW | 201 0.00 2.2   0.0 71.4   0.3 0.00 52.0   4.1 80.1   3.7 37.1   17.6
Elko-Moleen 9/1/26 1600 82.7 8 15.0 13.2 SSW | 201 23.1 SSW | 205 0.00 6.4 79.3 0.00 55.8 83.5 37.6
Elko-West 9/1/26 1600 81.4 11 21.1 15.3 S | 175 30.6 S | 183 0.00 33.2 66.6 0.00 52.5 82.2 35.0
Elko-Adobe Creek 9/1/26 1600 74.1 10 14.1 15.8 SSW | 202 26.1 SSW | 199 0.00 18.6 68.6 0.00 59.0 76.0 36.1
Tuscarora SW 9/1/26 1600 77.9 9 14.7 10.9 SW | 226 21.2 WSW | 244 0.00 7.1 79.4 0.00 75.2 79.5 35.6
Elko-Monument Peak 9/1/26 1600 77.2 11 17.8 11.8 SSW | 202 23.5 SSW | 204 0.00 3.7 73.2 0.00 68.4 78.2 33.7
Max     102.3 100 63.7 35.9 - 47.7 - 0.00 43.0 101.1 0.00 86.0 103.4 53.2
Avg     73.7 21 27.9 11.8 - 22.0 - 0.00 7.2 76.1 - - - -
Min     54.8 6 10.9 0.5 - 1.7 - 0.00 0.0 0.0 0.00 45.3 60.4 1.7